ORER

Details ICAO ORER (EBL)
Name ERBIL INTL
Region Iraq
Timezone Asia/Baghdad (UTC+3.0)
Plans Departing 37
Arriving 66
Stats Elevation 1,341 ft / 409 m (AMSL)
Location 36.237450° 43.959191°
Runways 3
Magnetic Variation 5.243° E
Sunrise 2017-12-13 04:08:04 UTC / 2017-12-13 07:08:04 Local
Sunset 2017-12-13 13:51:24 UTC / 2017-12-13 16:51:24 Local
Advertisement - Login to hide

Runways

ID Width Length Bearing (true) Bearing (mag) Surface Threshold Offset Overrun Length
15 95 ft / 29 m 9,209 ft / 2,807 m 151.77° 146.53° Asphalt 0 ft / 0 m 185 ft / 56 m
15L 105 ft / 32 m 4,089 ft / 1,246 m 151.76° 146.52° Asphalt 0 ft / 0 m 0 ft / 0 m
18 225 ft / 69 m 13,864 ft / 4,226 m 180.44° 175.20° Asphalt 0 ft / 0 m 0 ft / 0 m
33 95 ft / 29 m 9,209 ft / 2,807 m 331.78° 326.54° Asphalt 0 ft / 0 m 185 ft / 56 m
33R 105 ft / 32 m 4,089 ft / 1,246 m 331.76° 326.52° Asphalt 0 ft / 0 m 0 ft / 0 m
36 225 ft / 69 m 13,864 ft / 4,226 m 0.44° 355.20° Asphalt 0 ft / 0 m 0 ft / 0 m

Map

Weather


0- 5 10 15 20 25 30 35+ Temperature / ° C

Clouds and Precipitation
Forecast for 2017-12-13 18:00 UTC. Updated 2 hours ago

Ground ~20,000 ft ~40,000 ft Winds

METAR

ORER 131900Z 29008KT CAVOK 09/02 Q1018 NOSIG

TAF

Not found

Frequencies

Tower 128.80 MHz TWR
Approach 129.75 MHz KIRKUK
Warning: Do not use this data for real-world aviation or navigation. No guarantee of current accuracy is given.